Time;durP1;ratioP1;P1;durP2;ratioP2;P2;SDS_P1;SDS_P2;PMS_P1;PMS_P2;Temp;Humidity;BMP_temperature;BMP_pressure;BME280_temperature;BME280_humidity;BME280_pressure;Samples;Min_cycle;Max_cycle;Signal;HPM_P1;HPM_P2
2021/10/17 00:01:15;;;;;;;14.93;9.70;;;6.50;99.90;;;;;;5020999;28;20198;-72
2021/10/17 00:03:41;;;;;;;11.13;8.20;;;6.50;99.90;;;;;;5012929;28;20175;-72
2021/10/17 00:06:06;;;;;;;13.40;10.27;;;6.60;99.90;;;;;;5015358;27;20219;-72
2021/10/17 00:08:32;;;;;;;12.37;8.10;;;6.60;99.90;;;;;;5017972;28;20191;-72
2021/10/17 00:10:58;;;;;;;11.33;8.40;;;6.70;99.90;;;;;;5011409;28;20246;-72
2021/10/17 00:13:23;;;;;;;11.57;8.17;;;6.80;99.90;;;;;;5010778;28;20175;-72
2021/10/17 00:15:49;;;;;;;13.37;9.30;;;6.80;99.90;;;;;;5011562;28;20195;-72
2021/10/17 00:18:15;;;;;;;11.50;8.90;;;6.80;99.90;;;;;;5010833;28;20210;-72
2021/10/17 00:20:40;;;;;;;11.13;8.97;;;6.80;99.90;;;;;;5011958;28;20209;-72
2021/10/17 00:23:06;;;;;;;14.20;8.57;;;6.60;99.90;;;;;;5011194;28;20171;-72
2021/10/17 00:25:31;;;;;;;10.73;8.07;;;6.30;99.90;;;;;;5010170;27;20711;-72
2021/10/17 00:27:57;;;;;;;13.27;10.37;;;6.20;99.90;;;;;;5010864;28;20176;-72
2021/10/17 00:30:23;;;;;;;10.27;8.70;;;6.30;99.90;;;;;;5010624;28;20172;-72
2021/10/17 00:32:48;;;;;;;11.30;9.20;;;6.30;99.90;;;;;;5010801;28;20659;-72
2021/10/17 00:35:14;;;;;;;11.20;9.27;;;6.30;99.90;;;;;;5010531;28;20196;-72
2021/10/17 00:37:41;;;;;;;10.30;9.23;;;6.30;99.90;;;;;;5010719;28;20180;-72
2021/10/17 00:40:13;;;;;;;12.40;9.10;;;6.40;99.90;;;;;;5010601;28;20414;-71
2021/10/17 00:42:40;;;;;;;11.93;8.80;;;6.40;99.90;;;;;;5020302;28;20453;-71
2021/10/17 00:45:11;;;;;;;13.60;9.27;;;6.30;99.90;;;;;;5029861;27;20787;-72
2021/10/17 00:47:36;;;;;;;15.33;9.40;;;6.30;99.90;;;;;;5030452;28;20386;-71
2021/10/17 00:50:03;;;;;;;9.20;8.30;;;6.20;99.90;;;;;;5030346;28;20524;-71
2021/10/17 00:52:29;;;;;;;9.83;8.20;;;6.30;99.90;;;;;;5030115;28;20586;-71
2021/10/17 00:54:54;;;;;;;12.90;8.27;;;6.30;99.90;;;;;;5029849;28;20438;-71
2021/10/17 00:57:20;;;;;;;10.70;8.17;;;6.40;99.90;;;;;;5017164;28;20251;-70
2021/10/17 00:59:45;;;;;;;11.37;7.70;;;6.50;99.90;;;;;;5010020;28;20668;-71
2021/10/17 01:02:12;;;;;;;10.10;8.50;;;6.50;99.90;;;;;;5010421;28;20182;-71
2021/10/17 01:04:38;;;;;;;12.60;8.77;;;6.50;99.90;;;;;;5011015;28;20206;-71
2021/10/17 01:07:06;;;;;;;13.13;8.00;;;6.60;99.90;;;;;;5013968;28;20505;-71
2021/10/17 01:09:33;;;;;;;12.33;8.37;;;6.60;99.90;;;;;;5013614;27;20779;-71
2021/10/17 01:11:58;;;;;;;10.67;7.77;;;6.60;99.90;;;;;;5013383;28;20406;-72
2021/10/17 01:14:24;;;;;;;12.70;8.80;;;6.50;99.90;;;;;;5014652;28;20429;-71
2021/10/17 01:16:51;;;;;;;10.97;8.40;;;6.40;99.90;;;;;;5013792;28;20195;-71
2021/10/17 01:19:18;;;;;;;9.40;8.13;;;6.30;99.90;;;;;;5013408;28;20198;-71
2021/10/17 01:21:44;;;;;;;10.40;8.27;;;6.30;99.90;;;;;;5020223;28;20416;-72
2021/10/17 01:24:11;;;;;;;15.63;8.70;;;6.30;99.90;;;;;;5033311;28;20815;-72
2021/10/17 01:26:37;;;;;;;13.10;9.27;;;6.30;99.90;;;;;;5034054;28;20425;-72
2021/10/17 01:29:04;;;;;;;11.40;9.40;;;6.30;99.90;;;;;;5045885;28;20412;-72
2021/10/17 01:31:42;;;;;;;9.10;8.20;;;6.40;99.90;;;;;;5046980;28;20532;-72
2021/10/17 01:34:08;;;;;;;9.80;7.70;;;6.50;99.90;;;;;;5035614;28;20412;-72
2021/10/17 01:36:36;;;;;;;11.10;8.00;;;6.50;99.90;;;;;;5033092;28;20433;-72
2021/10/17 01:39:03;;;;;;;11.97;8.20;;;6.50;99.90;;;;;;5033525;28;20453;-72
2021/10/17 01:41:28;;;;;;;11.17;8.40;;;6.50;99.90;;;;;;5033168;28;20409;-72
2021/10/17 01:44:02;;;;;;;11.63;8.40;;;6.50;99.90;;;;;;5032734;27;20440;-72
2021/10/17 01:46:28;;;;;;;10.00;8.90;;;6.50;99.90;;;;;;5033713;28;20187;-72
2021/10/17 01:48:53;;;;;;;11.00;9.07;;;6.50;99.90;;;;;;5032430;28;20448;-72
2021/10/17 01:51:19;;;;;;;11.90;8.20;;;6.60;99.90;;;;;;5033884;28;20628;-72
2021/10/17 01:53:45;;;;;;;10.10;9.00;;;6.60;99.90;;;;;;5033442;28;20204;-72
2021/10/17 01:56:10;;;;;;;9.13;7.47;;;6.50;99.90;;;;;;5033900;28;20186;-72
2021/10/17 01:58:36;;;;;;;10.60;8.30;;;6.50;99.90;;;;;;5033525;28;20453;-72
2021/10/17 02:01:02;;;;;;;12.63;8.70;;;6.40;99.90;;;;;;5025628;27;20208;-72
2021/10/17 02:03:28;;;;;;;8.87;7.67;;;6.20;99.90;;;;;;5020297;28;20171;-72
2021/10/17 02:05:53;;;;;;;15.27;9.10;;;6.10;99.90;;;;;;5013682;28;20464;-72
2021/10/17 02:08:19;;;;;;;14.40;9.17;;;5.90;99.90;;;;;;5013649;28;20272;-72
2021/10/17 02:10:44;;;;;;;11.83;9.13;;;5.90;99.90;;;;;;5020418;28;20254;-72
2021/10/17 02:13:10;;;;;;;10.57;9.47;;;6.00;99.90;;;;;;5027818;28;20176;-72
2021/10/17 02:15:35;;;;;;;12.23;9.00;;;6.00;99.90;;;;;;5020894;28;20199;-72
2021/10/17 02:18:01;;;;;;;9.67;8.13;;;6.00;99.90;;;;;;5015360;28;20290;-72
2021/10/17 02:20:26;;;;;;;10.63;8.67;;;5.90;99.90;;;;;;5030061;28;20190;-72
2021/10/17 02:22:52;;;;;;;9.07;8.07;;;5.90;99.90;;;;;;5032843;28;20180;-72
2021/10/17 02:25:17;;;;;;;12.30;8.77;;;5.90;99.90;;;;;;5033601;28;20251;-72
2021/10/17 02:27:43;;;;;;;17.13;8.80;;;5.90;99.90;;;;;;5034100;28;20253;-72
2021/10/17 02:30:09;;;;;;;10.80;9.10;;;5.90;99.90;;;;;;5034608;28;20194;-72
2021/10/17 02:32:35;;;;;;;9.93;8.63;;;6.00;99.90;;;;;;5033368;28;20560;-72
2021/10/17 02:35:02;;;;;;;11.10;8.67;;;6.00;99.90;;;;;;5032041;28;20413;-72
2021/10/17 02:37:30;;;;;;;12.93;9.27;;;6.10;99.90;;;;;;5023532;28;20201;-72
2021/10/17 02:39:56;;;;;;;13.80;8.77;;;6.10;99.90;;;;;;5013004;28;20430;-72
2021/10/17 02:42:21;;;;;;;11.17;8.10;;;6.00;99.90;;;;;;5021673;28;20947;-72
2021/10/17 02:44:47;;;;;;;11.20;8.57;;;6.00;99.90;;;;;;5039592;27;20445;-72
2021/10/17 02:47:12;;;;;;;12.23;9.20;;;6.10;99.90;;;;;;5031850;28;20695;-72
2021/10/17 02:49:38;;;;;;;10.63;8.33;;;6.10;99.90;;;;;;5031985;28;20552;-72
2021/10/17 02:52:04;;;;;;;13.83;9.40;;;5.90;99.90;;;;;;5026972;28;20181;-72
2021/10/17 02:54:29;;;;;;;10.53;8.70;;;5.80;99.90;;;;;;5011927;28;20204;-72
2021/10/17 02:56:55;;;;;;;12.93;9.20;;;5.70;99.90;;;;;;5011946;28;20471;-72
2021/10/17 02:59:20;;;;;;;12.40;8.73;;;5.60;99.90;;;;;;5012285;28;20236;-72
2021/10/17 03:01:46;;;;;;;11.37;8.87;;;5.60;99.90;;;;;;5012461;28;20179;-72
2021/10/17 03:04:12;;;;;;;10.33;8.97;;;5.60;99.90;;;;;;5011771;28;20187;-72
2021/10/17 03:06:38;;;;;;;10.30;8.47;;;5.60;99.90;;;;;;5012601;27;20215;-72
2021/10/17 03:09:03;;;;;;;10.27;8.67;;;5.70;99.90;;;;;;5011700;28;20419;-72
2021/10/17 03:11:29;;;;;;;12.43;8.63;;;5.70;99.90;;;;;;5012013;28;20183;-72
2021/10/17 03:13:55;;;;;;;9.20;7.50;;;5.80;99.90;;;;;;5011714;28;20191;-72
2021/10/17 03:16:20;;;;;;;10.57;9.40;;;5.80;99.90;;;;;;5012098;27;20195;-72
2021/10/17 03:18:46;;;;;;;11.20;9.30;;;5.90;99.90;;;;;;5013131;28;20220;-72
2021/10/17 03:21:11;;;;;;;10.30;8.60;;;5.90;99.90;;;;;;5011672;28;20179;-72
2021/10/17 03:23:37;;;;;;;11.13;8.73;;;5.90;99.90;;;;;;5011580;28;20179;-72
2021/10/17 03:26:02;;;;;;;9.80;8.47;;;6.00;99.90;;;;;;5011527;28;20199;-72
2021/10/17 03:28:28;;;;;;;13.00;8.10;;;5.90;99.90;;;;;;5014436;27;20260;-72
2021/10/17 03:30:55;;;;;;;9.60;7.90;;;5.90;99.90;;;;;;5011441;28;20252;-72
2021/10/17 03:33:22;;;;;;;8.90;8.00;;;6.00;99.90;;;;;;5011828;28;20180;-72
2021/10/17 03:35:47;;;;;;;9.87;8.23;;;5.90;99.90;;;;;;5011547;28;20435;-72
2021/10/17 03:38:13;;;;;;;11.37;8.47;;;5.80;99.90;;;;;;5011437;28;20465;-72
2021/10/17 03:40:38;;;;;;;11.20;8.97;;;5.80;99.90;;;;;;5012476;28;20179;-72
2021/10/17 03:43:04;;;;;;;8.37;7.57;;;5.90;99.90;;;;;;5011423;28;23286;-72
2021/10/17 03:45:30;;;;;;;10.80;8.30;;;6.00;99.90;;;;;;5011524;28;20196;-72
2021/10/17 03:47:57;;;;;;;9.37;7.57;;;6.00;99.90;;;;;;5011569;28;20625;-72
2021/10/17 03:50:23;;;;;;;9.20;8.30;;;6.00;99.90;;;;;;5011928;28;20446;-72
2021/10/17 03:52:48;;;;;;;9.57;7.03;;;6.10;99.90;;;;;;5011515;28;20891;-72
2021/10/17 03:55:14;;;;;;;11.53;8.27;;;6.10;99.90;;;;;;5010721;28;20491;-72
2021/10/17 03:57:40;;;;;;;10.40;8.10;;;6.10;99.90;;;;;;5011060;28;20560;-72
2021/10/17 04:00:06;;;;;;;13.00;9.40;;;6.10;99.90;;;;;;5012567;28;20189;-72
2021/10/17 04:02:34;;;;;;;9.00;7.53;;;6.10;99.90;;;;;;5010995;28;20187;-72
2021/10/17 04:04:59;;;;;;;9.50;8.50;;;6.10;99.90;;;;;;5010587;28;20414;-72
2021/10/17 04:07:25;;;;;;;8.57;7.67;;;6.10;99.90;;;;;;5011202;28;20414;-72
2021/10/17 04:09:51;;;;;;;11.17;8.33;;;6.00;99.90;;;;;;5010883;28;20180;-72
2021/10/17 04:12:16;;;;;;;10.50;7.63;;;6.00;99.90;;;;;;5012219;28;20509;-72
2021/10/17 04:14:42;;;;;;;10.00;7.90;;;6.10;99.90;;;;;;5010301;28;20190;-72
2021/10/17 04:17:07;;;;;;;10.20;7.10;;;6.10;99.90;;;;;;5011244;28;20195;-72
2021/10/17 04:19:33;;;;;;;7.90;7.10;;;6.10;99.90;;;;;;5010910;28;20203;-72
2021/10/17 04:21:58;;;;;;;12.90;7.90;;;6.20;99.90;;;;;;5010697;28;20172;-72
2021/10/17 04:24:24;;;;;;;11.70;8.10;;;6.20;99.90;;;;;;5010728;28;20204;-72
2021/10/17 04:26:50;;;;;;;10.50;8.20;;;6.20;99.90;;;;;;5010324;28;20699;-72
2021/10/17 04:29:15;;;;;;;8.77;7.00;;;6.20;99.90;;;;;;5009544;28;20629;-72
2021/10/17 04:31:41;;;;;;;10.27;8.50;;;6.20;99.90;;;;;;5011562;28;20182;-72
2021/10/17 04:34:06;;;;;;;9.50;8.50;;;6.10;99.90;;;;;;5010526;28;20482;-72
2021/10/17 04:36:32;;;;;;;12.13;8.10;;;6.00;99.90;;;;;;5010514;28;20244;-72
2021/10/17 04:38:58;;;;;;;12.13;8.50;;;6.00;99.90;;;;;;5010406;28;20199;-72
2021/10/17 04:41:23;;;;;;;13.30;7.80;;;6.00;99.90;;;;;;5013541;28;20225;-72
2021/10/17 04:43:49;;;;;;;10.40;8.33;;;6.10;99.90;;;;;;5015086;27;20466;-72
2021/10/17 04:46:15;;;;;;;10.73;8.50;;;6.10;99.90;;;;;;5013957;28;20707;-72
2021/10/17 04:48:41;;;;;;;10.43;7.87;;;6.20;99.90;;;;;;5013666;28;20564;-72
2021/10/17 04:51:06;;;;;;;9.73;7.73;;;6.20;99.90;;;;;;5014327;28;20501;-72
2021/10/17 04:53:32;;;;;;;9.57;7.50;;;6.30;99.90;;;;;;5017675;28;20187;-72
2021/10/17 04:55:57;;;;;;;10.97;8.30;;;6.30;99.90;;;;;;5033924;28;20194;-72
2021/10/17 04:58:25;;;;;;;8.40;7.60;;;6.30;99.90;;;;;;5033541;28;20190;-72
2021/10/17 05:00:51;;;;;;;9.27;7.70;;;6.30;99.90;;;;;;5034355;28;20174;-73
2021/10/17 05:03:17;;;;;;;8.80;7.63;;;6.30;99.90;;;;;;5033386;27;20418;-72
2021/10/17 05:05:42;;;;;;;10.47;7.60;;;6.40;99.90;;;;;;5032198;28;20269;-72
2021/10/17 05:08:08;;;;;;;10.00;7.23;;;6.40;99.90;;;;;;5033248;28;20536;-72
2021/10/17 05:10:34;;;;;;;10.37;8.40;;;6.50;99.90;;;;;;5034009;28;20199;-72
2021/10/17 05:13:00;;;;;;;9.00;8.07;;;6.40;99.90;;;;;;5032077;28;20192;-72
2021/10/17 05:15:26;;;;;;;11.20;8.73;;;6.30;99.90;;;;;;5033130;27;20446;-72
2021/10/17 05:17:52;;;;;;;14.40;8.83;;;6.30;99.90;;;;;;5033102;28;20650;-72
2021/10/17 05:20:17;;;;;;;8.93;7.33;;;6.30;99.90;;;;;;5033252;28;20457;-72
2021/10/17 05:22:43;;;;;;;10.40;8.07;;;6.30;99.90;;;;;;5032918;28;20226;-72
2021/10/17 05:25:09;;;;;;;9.97;8.43;;;6.40;99.90;;;;;;5032335;27;20643;-73
2021/10/17 05:27:34;;;;;;;9.90;7.67;;;6.30;99.90;;;;;;5028232;28;20171;-72
2021/10/17 05:30:00;;;;;;;9.03;8.07;;;6.30;99.90;;;;;;5021486;28;20168;-72
2021/10/17 05:32:25;;;;;;;9.13;7.93;;;6.30;99.90;;;;;;5026481;28;20280;-72
2021/10/17 05:34:51;;;;;;;9.60;7.83;;;6.40;99.90;;;;;;5014719;28;20249;-72
2021/10/17 05:37:17;;;;;;;8.37;7.53;;;6.40;99.90;;;;;;5013337;28;20180;-72
2021/10/17 05:39:42;;;;;;;9.07;7.50;;;6.30;99.90;;;;;;5013862;28;20286;-72
2021/10/17 05:42:08;;;;;;;8.10;7.30;;;6.20;99.90;;;;;;5012518;28;20175;-72
2021/10/17 05:44:33;;;;;;;9.00;7.63;;;6.00;99.90;;;;;;5014235;27;20193;-72
2021/10/17 05:46:59;;;;;;;10.00;8.20;;;6.00;99.90;;;;;;5013247;28;20191;-72
2021/10/17 05:49:24;;;;;;;10.53;8.23;;;6.10;99.90;;;;;;5013182;28;20199;-72
2021/10/17 05:51:50;;;;;;;10.97;8.23;;;6.20;99.90;;;;;;5013111;28;20182;-70
2021/10/17 05:54:15;;;;;;;12.70;8.30;;;6.20;99.90;;;;;;5013857;28;20176;-69
2021/10/17 05:56:41;;;;;;;10.97;8.13;;;6.20;99.90;;;;;;5038433;28;20291;-72
2021/10/17 05:59:09;;;;;;;8.87;7.93;;;6.20;99.90;;;;;;5032850;28;20640;-72
2021/10/17 06:01:36;;;;;;;10.60;8.07;;;6.30;99.90;;;;;;5024517;27;21279;-72
2021/10/17 06:04:03;;;;;;;13.03;8.40;;;6.40;99.90;;;;;;5023247;28;20430;-72
2021/10/17 06:06:28;;;;;;;13.60;7.90;;;6.40;99.90;;;;;;5017834;28;20449;-72
2021/10/17 06:08:56;;;;;;;9.83;8.00;;;6.40;99.90;;;;;;5013309;28;20414;-72
2021/10/17 06:11:22;;;;;;;8.77;7.90;;;6.40;99.90;;;;;;5020794;27;20217;-72
2021/10/17 06:13:47;;;;;;;8.27;7.47;;;6.50;99.90;;;;;;5015096;28;20755;-72
2021/10/17 06:16:13;;;;;;;9.27;7.70;;;6.50;99.90;;;;;;5015011;28;20194;-72
2021/10/17 06:18:39;;;;;;;9.00;7.67;;;6.60;99.90;;;;;;5020672;28;20214;-72
2021/10/17 06:21:07;;;;;;;8.73;7.93;;;6.70;99.90;;;;;;5020443;27;20215;-72
2021/10/17 06:23:34;;;;;;;12.20;8.67;;;6.70;99.90;;;;;;5021054;28;20175;-72
2021/10/17 06:25:59;;;;;;;10.97;8.53;;;6.80;99.90;;;;;;5021001;28;20841;-72
2021/10/17 06:28:25;;;;;;;8.43;7.63;;;6.80;99.90;;;;;;5005978;27;20453;-72
2021/10/17 06:30:51;;;;;;;10.00;7.90;;;6.90;99.90;;;;;;5013882;27;20190;-72
2021/10/17 06:33:16;;;;;;;8.90;8.00;;;6.90;99.90;;;;;;5027339;27;20966;-72
2021/10/17 06:35:42;;;;;;;8.90;7.87;;;6.90;99.90;;;;;;5020163;28;20203;-72
2021/10/17 06:38:08;;;;;;;8.30;7.27;;;6.90;99.90;;;;;;5026701;28;20285;-72
2021/10/17 06:40:34;;;;;;;11.77;8.70;;;7.00;99.90;;;;;;5028434;28;20179;-72
2021/10/17 06:43:00;;;;;;;11.33;8.43;;;7.10;99.90;;;;;;5016160;28;20435;-72
2021/10/17 06:45:25;;;;;;;10.93;8.30;;;7.10;99.90;;;;;;5028360;28;20199;-72
2021/10/17 06:47:51;;;;;;;8.77;7.30;;;7.20;99.90;;;;;;5022542;27;20441;-72
2021/10/17 06:50:20;;;;;;;9.10;7.90;;;7.20;99.90;;;;;;5026719;28;20202;-72
2021/10/17 06:52:46;;;;;;;11.03;8.60;;;7.30;99.90;;;;;;5024038;28;20179;-72
2021/10/17 06:55:12;;;;;;;12.30;8.27;;;7.30;99.90;;;;;;5013195;28;20910;-72
2021/10/17 06:57:37;;;;;;;12.03;8.20;;;7.40;99.90;;;;;;5028146;28;20418;-72
2021/10/17 07:00:04;;;;;;;10.83;8.07;;;7.40;99.90;;;;;;5028523;28;20187;-72
2021/10/17 07:02:29;;;;;;;9.70;8.27;;;7.40;99.90;;;;;;5027654;28;20739;-72
2021/10/17 07:04:55;;;;;;;9.13;8.03;;;7.40;99.90;;;;;;5013452;28;20462;-73
2021/10/17 07:07:20;;;;;;;8.70;7.80;;;7.50;99.90;;;;;;5029970;28;20187;-73
2021/10/17 07:09:46;;;;;;;10.47;8.43;;;7.60;99.90;;;;;;5029182;28;20187;-73
2021/10/17 07:12:12;;;;;;;9.80;8.50;;;7.60;99.90;;;;;;5029179;28;20262;-70
2021/10/17 07:14:37;;;;;;;9.27;7.53;;;7.70;99.90;;;;;;5026348;28;20187;-71
2021/10/17 07:17:03;;;;;;;10.50;9.10;;;7.70;99.90;;;;;;5027482;28;20898;-70
2021/10/17 07:19:28;;;;;;;11.47;8.30;;;7.70;99.90;;;;;;5026987;27;20541;-70
2021/10/17 07:21:54;;;;;;;9.30;8.23;;;7.80;99.90;;;;;;5027786;28;20183;-70
2021/10/17 07:24:19;;;;;;;8.70;7.90;;;7.90;99.90;;;;;;5024639;28;20191;-70
2021/10/17 07:26:45;;;;;;;11.63;7.83;;;7.90;99.90;;;;;;5027747;28;20515;-71
2021/10/17 07:29:11;;;;;;;10.47;8.13;;;8.00;99.90;;;;;;5013811;27;20468;-69
2021/10/17 07:31:36;;;;;;;11.20;7.90;;;8.00;99.90;;;;;;5022266;28;20339;-72
2021/10/17 07:34:02;;;;;;;11.10;8.33;;;8.00;99.90;;;;;;5032675;28;20693;-71
2021/10/17 07:36:27;;;;;;;14.03;8.53;;;8.10;99.90;;;;;;5035260;27;20722;-71
2021/10/17 07:38:53;;;;;;;11.30;8.40;;;8.10;99.90;;;;;;5044018;27;20286;-72
2021/10/17 07:41:20;;;;;;;8.40;7.50;;;8.20;99.90;;;;;;5030762;27;20656;-72
2021/10/17 07:43:46;;;;;;;10.67;8.03;;;8.20;99.90;;;;;;5046852;27;20202;-71
2021/10/17 07:46:12;;;;;;;10.97;8.97;;;8.30;99.90;;;;;;5023362;27;20557;-72
2021/10/17 07:48:38;;;;;;;13.37;8.80;;;8.30;99.90;;;;;;5025869;28;20294;-71
2021/10/17 07:51:08;;;;;;;10.70;8.90;;;8.40;99.90;;;;;;5025574;27;20330;-72
2021/10/17 07:53:34;;;;;;;8.97;8.07;;;8.40;99.90;;;;;;5025217;28;20445;-71
2021/10/17 07:56:00;;;;;;;9.87;8.40;;;8.40;99.90;;;;;;5023832;27;20461;-71
2021/10/17 07:58:26;;;;;;;11.03;9.30;;;8.50;99.90;;;;;;5034807;28;21043;-70
2021/10/17 08:00:52;;;;;;;10.87;9.50;;;8.60;99.90;;;;;;5011268;27;20458;-70
2021/10/17 08:03:18;;;;;;;10.73;9.63;;;8.60;99.90;;;;;;5011042;28;20203;-70
2021/10/17 08:05:43;;;;;;;10.13;8.60;;;8.70;99.90;;;;;;5007998;27;20466;-71
2021/10/17 08:08:09;;;;;;;10.53;9.23;;;8.70;99.90;;;;;;5022580;28;20610;-71
2021/10/17 08:10:35;;;;;;;9.47;8.57;;;8.80;99.90;;;;;;5023011;27;20705;-70
2021/10/17 08:13:01;;;;;;;11.50;8.87;;;8.80;99.90;;;;;;5008069;27;20219;-70
2021/10/17 08:15:28;;;;;;;11.80;8.50;;;8.90;99.90;;;;;;5007060;27;20231;-71
2021/10/17 08:17:54;;;;;;;11.37;8.23;;;9.00;99.90;;;;;;5018999;28;20511;-70
2021/10/17 08:20:20;;;;;;;10.23;8.70;;;9.10;99.90;;;;;;5010605;27;20546;-70
2021/10/17 08:22:46;;;;;;;9.90;8.23;;;9.20;99.90;;;;;;5018731;28;20508;-72
2021/10/17 08:25:11;;;;;;;11.20;8.97;;;9.20;99.90;;;;;;5022005;28;20989;-71
2021/10/17 08:27:40;;;;;;;10.30;9.00;;;9.20;99.90;;;;;;5025220;27;20476;-72
2021/10/17 08:30:07;;;;;;;9.77;8.77;;;9.30;99.90;;;;;;5020519;28;20211;-72
2021/10/17 08:32:32;;;;;;;11.40;9.60;;;9.40;99.90;;;;;;5023052;27;20972;-72
2021/10/17 08:34:58;;;;;;;13.20;9.77;;;9.40;99.90;;;;;;5025785;28;20434;-72
2021/10/17 08:37:23;;;;;;;13.33;9.83;;;9.50;99.90;;;;;;5031931;27;20633;-71
2021/10/17 08:39:49;;;;;;;11.83;9.20;;;9.60;99.90;;;;;;5023494;28;20224;-72
2021/10/17 08:42:15;;;;;;;10.80;9.50;;;9.60;99.90;;;;;;5025617;27;20626;-72
2021/10/17 08:44:41;;;;;;;11.17;9.33;;;9.70;99.90;;;;;;5023172;27;20316;-71
2021/10/17 08:47:07;;;;;;;12.00;10.40;;;9.80;99.90;;;;;;5034725;27;20491;-70
2021/10/17 08:49:33;;;;;;;10.40;9.40;;;9.80;99.90;;;;;;5035300;28;20676;-71
2021/10/17 08:51:59;;;;;;;10.90;9.90;;;9.90;99.90;;;;;;5044608;27;20273;-71
2021/10/17 08:54:24;;;;;;;10.27;9.27;;;10.00;99.90;;;;;;5007807;28;20442;-71
2021/10/17 08:56:50;;;;;;;12.00;9.47;;;10.00;99.90;;;;;;5008682;27;20215;-71
2021/10/17 08:59:16;;;;;;;13.53;9.47;;;10.10;99.90;;;;;;5013907;27;20241;-72
2021/10/17 09:01:42;;;;;;;12.27;9.60;;;10.20;99.90;;;;;;5023156;27;20397;-71
2021/10/17 09:04:10;;;;;;;12.57;9.73;;;10.30;99.90;;;;;;5020311;28;20567;-72
2021/10/17 09:06:37;;;;;;;13.63;9.53;;;10.30;99.90;;;;;;5035685;28;20446;-71
2021/10/17 09:09:07;;;;;;;10.60;8.87;;;10.40;99.90;;;;;;5054545;28;20454;-71
2021/10/17 09:11:53;;;;;;;11.87;10.73;;;10.40;99.90;;;;;;5054429;28;20781;-70
2021/10/17 09:14:22;;;;;;;10.93;9.57;;;10.50;99.90;;;;;;5028929;28;20426;-70
2021/10/17 09:16:53;;;;;;;12.47;9.90;;;10.60;99.90;;;;;;5007711;28;21213;-71
2021/10/17 09:19:26;;;;;;;14.70;10.00;;;10.60;99.90;;;;;;5008145;28;20489;-71
2021/10/17 09:21:53;;;;;;;11.50;9.70;;;10.70;99.90;;;;;;5009694;28;20424;-70
2021/10/17 09:24:47;;;;;;;11.53;10.03;;;10.80;99.90;;;;;;5011351;28;20475;-71
2021/10/17 09:27:18;;;;;;;10.07;8.93;;;10.80;99.90;;;;;;5013121;28;20524;-71
2021/10/17 09:29:49;;;;;;;11.17;9.00;;;10.90;99.90;;;;;;5013780;28;20436;-71
2021/10/17 09:32:20;;;;;;;15.10;10.03;;;11.00;99.90;;;;;;5014153;27;20487;-71
2021/10/17 09:35:15;;;;;;;15.90;10.87;;;11.10;99.90;;;;;;5014907;28;20422;-71
2021/10/17 09:37:42;;;;;;;12.40;9.90;;;11.10;99.90;;;;;;5054586;28;20443;-74
2021/10/17 09:40:22;;;;;;;13.43;10.13;;;11.20;99.90;;;;;;5060685;28;20801;-71
2021/10/17 09:43:08;;;;;;;16.20;10.30;;;11.30;99.90;;;;;;5094587;28;20410;-71
2021/10/17 09:45:35;;;;;;;13.80;10.17;;;11.40;99.90;;;;;;5086480;28;20957;-71
2021/10/17 09:48:00;;;;;;;11.33;9.70;;;11.50;99.90;;;;;;5054904;28;20785;-72
2021/10/17 09:50:26;;;;;;;12.13;9.63;;;11.50;99.90;;;;;;5054175;28;20439;-71
2021/10/17 09:52:57;;;;;;;9.87;8.93;;;11.60;99.90;;;;;;5054381;28;20174;-71
2021/10/17 09:55:24;;;;;;;11.90;10.03;;;11.70;99.90;;;;;;5054170;28;20290;-71
2021/10/17 09:57:51;;;;;;;12.07;9.80;;;11.70;99.90;;;;;;5054561;28;20448;-71
2021/10/17 10:00:17;;;;;;;11.10;10.03;;;11.80;99.90;;;;;;5054231;28;20435;-71
2021/10/17 10:02:45;;;;;;;11.00;9.17;;;11.90;99.90;;;;;;5053789;28;20750;-71
2021/10/17 10:05:11;;;;;;;11.70;9.47;;;12.00;99.90;;;;;;5053873;28;20467;-71
2021/10/17 10:07:38;;;;;;;10.87;9.70;;;12.10;99.90;;;;;;5045139;28;20460;-71
2021/10/17 10:10:04;;;;;;;10.30;8.90;;;12.20;99.90;;;;;;5057071;28;20438;-71
2021/10/17 10:12:32;;;;;;;13.43;10.53;;;12.30;99.90;;;;;;5073854;28;20955;-71
2021/10/17 10:14:58;;;;;;;10.90;9.50;;;12.40;99.90;;;;;;5019618;28;20911;-71
2021/10/17 10:17:27;;;;;;;15.20;11.20;;;12.50;99.90;;;;;;5014757;28;20478;-70
2021/10/17 10:19:54;;;;;;;12.47;10.50;;;12.50;99.90;;;;;;5013039;27;20509;-71
2021/10/17 10:22:20;;;;;;;9.87;8.87;;;12.50;99.90;;;;;;5012879;28;20501;-71
2021/10/17 10:24:50;;;;;;;13.20;9.70;;;12.60;99.90;;;;;;5013167;28;20465;-71
2021/10/17 10:27:16;;;;;;;10.20;9.20;;;12.60;99.90;;;;;;5012724;28;20171;-71
2021/10/17 10:29:42;;;;;;;13.63;10.37;;;12.70;99.90;;;;;;5014085;28;20422;-72
2021/10/17 10:32:08;;;;;;;14.97;11.00;;;12.70;99.90;;;;;;5012391;28;20503;-71
2021/10/17 10:34:36;;;;;;;10.40;8.80;;;12.70;99.90;;;;;;5012656;28;20286;-71
2021/10/17 10:37:16;;;;;;;12.70;9.53;;;12.60;99.90;;;;;;5011759;28;20439;-72
2021/10/17 10:40:01;;;;;;;9.50;8.20;;;12.70;99.90;;;;;;5013461;28;20466;-71
2021/10/17 10:42:44;;;;;;;10.27;6.25;;;12.70;99.90;;;;;;5012504;28;20422;-71
2021/10/17 10:45:34;;;;;;;7.50;6.10;;;12.70;99.90;;;;;;5011960;27;20207;-71
2021/10/17 10:48:06;;;;;;;8.43;6.33;;;12.70;99.90;;;;;;5012409;28;20395;-71
2021/10/17 10:50:40;;;;;;;6.33;5.13;;;12.90;99.90;;;;;;5012121;28;20558;-71
2021/10/17 10:53:06;;;;;;;5.33;4.70;;;13.00;99.90;;;;;;5013542;28;20419;-72
2021/10/17 10:55:48;;;;;;;5.60;4.20;;;13.20;99.90;;;;;;5011998;28;20458;-71
2021/10/17 10:58:35;;;;;;;4.73;3.67;;;13.30;99.50;;;;;;5012507;28;20453;-71
2021/10/17 11:01:02;;;;;;;7.33;4.50;;;13.30;98.10;;;;;;5011929;28;20510;-72
2021/10/17 11:03:41;;;;;;;6.60;4.57;;;13.40;98.90;;;;;;5012819;28;20430;-71
2021/10/17 11:06:08;;;;;;;5.57;3.73;;;13.50;98.90;;;;;;5012178;28;20939;-71
2021/10/17 11:08:34;;;;;;;4.23;3.70;;;13.50;98.50;;;;;;5011995;28;20498;-71
2021/10/17 11:11:00;;;;;;;4.83;3.23;;;13.70;98.60;;;;;;5012120;28;20617;-71
2021/10/17 11:13:30;;;;;;;4.13;3.07;;;13.90;98.30;;;;;;5013546;28;20433;-71
2021/10/17 11:15:55;;;;;;;3.93;2.37;;;14.00;97.50;;;;;;5011883;28;20191;-71
2021/10/17 11:18:30;;;;;;;5.60;2.90;;;14.20;96.40;;;;;;5011716;28;20461;-71
2021/10/17 11:20:57;;;;;;;5.63;3.27;;;14.30;96.30;;;;;;5012108;28;20477;-71
2021/10/17 11:23:27;;;;;;;3.97;2.70;;;14.30;95.20;;;;;;5012950;28;20411;-71
2021/10/17 11:25:54;;;;;;;3.87;3.03;;;14.30;95.30;;;;;;5013229;28;20488;-71
2021/10/17 11:28:26;;;;;;;6.00;3.00;;;14.40;95.50;;;;;;5020822;28;20750;-71
2021/10/17 11:31:24;;;;;;;3.47;3.10;;;14.50;95.30;;;;;;5031037;28;20413;-71
2021/10/17 11:33:51;;;;;;;4.53;2.83;;;14.60;95.10;;;;;;4952511;29;20895;-71
2021/10/17 11:36:18;;;;;;;3.80;2.73;;;14.60;94.90;;;;;;4953706;28;20507;-71
2021/10/17 11:38:45;;;;;;;3.40;2.60;;;14.60;95.20;;;;;;4938632;29;20452;-71
2021/10/17 11:41:13;;;;;;;3.23;2.63;;;14.70;94.90;;;;;;4941204;29;20434;-71
2021/10/17 11:43:44;;;;;;;4.37;2.73;;;14.70;94.20;;;;;;4931675;29;20418;-71
2021/10/17 11:46:17;;;;;;;2.43;2.23;;;14.70;93.70;;;;;;4916888;28;20450;-69
2021/10/17 11:48:45;;;;;;;2.83;2.23;;;14.50;93.60;;;;;;4932207;29;20473;-70
2021/10/17 11:51:22;;;;;;;2.23;2.03;;;14.50;93.70;;;;;;4932447;29;20422;-70
2021/10/17 11:53:55;;;;;;;2.23;2.03;;;14.60;93.70;;;;;;4932308;29;20422;-70
2021/10/17 11:56:22;;;;;;;3.83;2.20;;;14.70;93.60;;;;;;4936085;29;20438;-71
2021/10/17 11:58:47;;;;;;;2.80;2.60;;;14.80;93.50;;;;;;4942182;29;20864;-71
2021/10/17 12:01:15;;;;;;;3.50;3.20;;;14.80;93.40;;;;;;4932899;29;20426;-71
2021/10/17 12:03:42;;;;;;;4.23;2.70;;;14.80;93.50;;;;;;4932084;29;20193;-71
2021/10/17 12:06:19;;;;;;;4.40;2.83;;;14.80;93.30;;;;;;4931420;29;20435;-71
2021/10/17 12:08:52;;;;;;;5.73;3.23;;;14.80;93.40;;;;;;4934513;29;20824;-71
2021/10/17 12:11:19;;;;;;;3.20;2.30;;;14.80;93.00;;;;;;5010349;28;20418;-71
2021/10/17 12:13:49;;;;;;;3.83;2.53;;;14.90;93.20;;;;;;5010942;28;20419;-71
2021/10/17 12:16:18;;;;;;;3.90;2.70;;;14.70;93.30;;;;;;5010878;28;20430;-71
2021/10/17 12:18:46;;;;;;;2.90;2.67;;;14.80;93.50;;;;;;5024444;28;20781;-71
2021/10/17 12:21:15;;;;;;;4.70;2.80;;;14.80;93.60;;;;;;5035783;28;20914;-71
2021/10/17 12:23:44;;;;;;;4.03;3.23;;;14.80;93.60;;;;;;5040258;28;20430;-71
2021/10/17 12:26:18;;;;;;;4.60;3.17;;;14.70;93.80;;;;;;5030817;28;20437;-71
2021/10/17 12:28:58;;;;;;;4.07;2.90;;;14.70;94.00;;;;;;5022748;28;20418;-70
2021/10/17 12:31:35;;;;;;;3.00;2.80;;;14.60;94.00;;;;;;5009782;28;20480;-70
2021/10/17 12:34:03;;;;;;;2.80;2.53;;;14.60;94.30;;;;;;5010537;28;20335;-70
2021/10/17 12:36:29;;;;;;;3.40;2.60;;;14.60;94.30;;;;;;5010872;28;20434;-70
2021/10/17 12:39:00;;;;;;;3.20;2.90;;;14.60;94.30;;;;;;5010906;28;20553;-70
2021/10/17 12:41:30;;;;;;;3.17;2.60;;;14.60;94.40;;;;;;5036367;28;20172;-70
2021/10/17 12:44:01;;;;;;;3.70;2.90;;;14.60;94.70;;;;;;5009324;28;20422;-71
2021/10/17 12:46:27;;;;;;;3.83;2.50;;;14.60;94.30;;;;;;5010698;27;20443;-70
2021/10/17 12:48:53;;;;;;;3.23;2.73;;;14.60;94.40;;;;;;5010881;28;20479;-70